createdAt,value
2022-11-28T00:02:15.136Z,10.63
2022-11-28T00:07:07.036Z,10.43
2022-11-28T00:11:58.799Z,10.33
2022-11-28T00:16:50.528Z,10.00
2022-11-28T00:21:42.309Z,9.43
2022-11-28T00:26:39.431Z,9.53
2022-11-28T00:31:36.100Z,9.97
2022-11-28T00:36:29.684Z,8.93
2022-11-28T00:41:28.911Z,8.73
2022-11-28T00:46:22.531Z,9.07
2022-11-28T00:51:17.111Z,8.87
2022-11-28T00:56:12.244Z,9.40
2022-11-28T01:01:18.855Z,8.10
2022-11-28T01:06:20.207Z,8.60
2022-11-28T01:11:13.001Z,9.33
2022-11-28T01:16:05.198Z,9.77
2022-11-28T01:20:57.035Z,9.70
2022-11-28T01:25:48.759Z,8.83
2022-11-28T01:30:40.648Z,9.63
2022-11-28T01:35:32.364Z,9.37
2022-11-28T01:40:24.102Z,9.60
2022-11-28T01:45:24.268Z,9.27
2022-11-28T01:50:16.965Z,9.47
2022-11-28T01:55:12.961Z,9.13
2022-11-28T02:00:18.860Z,9.20
2022-11-28T02:05:10.571Z,9.23
2022-11-28T02:10:07.702Z,9.47
2022-11-28T02:15:14.056Z,9.40
2022-11-28T02:20:30.290Z,10.13
2022-11-28T02:26:02.684Z,9.20
2022-11-28T02:31:33.465Z,10.03
2022-11-28T02:37:00.021Z,9.87
2022-11-28T02:42:23.258Z,10.67
2022-11-28T02:47:25.754Z,9.90
2022-11-28T02:52:26.389Z,10.03
2022-11-28T02:57:18.135Z,9.97
2022-11-28T03:02:25.311Z,9.87
2022-11-28T03:07:46.331Z,10.23
2022-11-28T03:13:04.971Z,10.97
2022-11-28T03:18:18.623Z,9.70
2022-11-28T03:23:15.258Z,9.43
2022-11-28T03:28:30.000Z,8.73
2022-11-28T03:33:27.707Z,9.23
2022-11-28T03:38:32.435Z,8.03
2022-11-28T03:43:36.342Z,8.77
2022-11-28T03:48:34.825Z,9.53
2022-11-28T03:54:05.416Z,8.20
2022-11-28T03:59:08.419Z,8.27
2022-11-28T04:04:16.392Z,8.70
2022-11-28T04:09:18.342Z,8.13
2022-11-28T04:14:34.648Z,8.30
2022-11-28T04:19:43.303Z,8.73
2022-11-28T04:24:51.235Z,8.13
2022-11-28T04:29:49.516Z,8.87
2022-11-28T04:34:46.852Z,9.20
2022-11-28T04:39:43.183Z,8.80
2022-11-28T04:44:47.132Z,8.77
2022-11-28T04:49:39.948Z,9.07
2022-11-28T04:55:06.229Z,9.47
2022-11-28T05:00:01.323Z,8.70
2022-11-28T05:20:15.500Z,9.80
2022-11-28T09:00:05.272Z,9.87
2022-11-28T09:05:02.137Z,9.90
2022-11-28T10:20:35.355Z,10.20
2022-11-28T12:01:29.260Z,9.87
2022-11-28T13:25:19.381Z,8.50
2022-11-28T13:30:35.599Z,8.87
2022-11-28T13:46:06.106Z,8.27
2022-11-28T15:31:09.309Z,9.50
2022-11-28T16:23:39.428Z,9.83
2022-11-28T16:28:41.607Z,9.20
2022-11-28T17:05:13.818Z,9.87
2022-11-28T17:25:47.178Z,9.87
2022-11-28T17:40:55.705Z,14.43
2022-11-28T18:27:15.532Z,13.57
2022-11-28T18:32:19.100Z,12.47
2022-11-28T18:42:22.883Z,11.10
2022-11-28T19:02:41.336Z,10.73
2022-11-28T19:12:47.657Z,10.83
2022-11-28T19:22:46.764Z,10.27
2022-11-28T19:32:44.840Z,9.77
2022-11-28T19:42:47.117Z,11.97
2022-11-28T20:03:00.555Z,12.63
2022-11-28T20:13:06.733Z,13.03
2022-11-28T20:17:59.267Z,12.13
2022-11-28T20:28:02.320Z,10.87
2022-11-28T20:32:55.486Z,10.83
2022-11-28T21:24:15.216Z,6.37
2022-11-28T21:39:29.644Z,7.13
2022-11-28T21:44:23.292Z,6.80
2022-11-28T21:49:16.625Z,6.73
2022-11-28T21:59:17.090Z,7.90
2022-11-28T22:04:10.755Z,7.43
2022-11-28T22:09:12.816Z,7.47
2022-11-28T22:24:20.299Z,6.03
2022-11-28T22:29:17.487Z,6.83
2022-11-28T22:34:18.174Z,5.77
2022-11-28T22:44:18.699Z,6.50
2022-11-28T22:54:18.786Z,5.77
2022-11-28T22:59:24.911Z,4.73
2022-11-28T23:14:28.644Z,4.30
2022-11-28T23:19:22.473Z,4.30
2022-11-28T23:24:21.174Z,4.20
2022-11-28T23:44:32.996Z,4.70
2022-11-28T23:54:30.703Z,4.60
